YBL weather

Campbell River Airport
Campbell River, British Columbia, Canada

Public forecast

Using degrees Celsius for public forecast. Weather courtesy of forecast.io.

METAR (pilot weather report)

Report is more than 2 hours old.

Retrieved 2019/03/23 04:00 UTC (2 hours ago):

CYBL 230400Z VRB02KT 15SM SCT035 BKN060 OVC150 08/06 A2991 RMK SC3SC4AC1 LAST STFD OBS/NEXT 231300 UTC SLP131

TAF (pilot weather forecast)

Retrieved 2019/03/23 01:00 UTC (5 hours ago):

TAF CYBL 230038Z 2301/2304 14012G22KT P6SM -RA SCT020 BKN050 TEMPO 2301/2304 5SM -SHRA BR OVC020 RMK NXT FCST WILL BE ISSUED AT 231445Z